Decoded Metar for LTFG ( in ) (IATA:) | Meteo·Mobile Aviation Weather
aviador You're here:

LTFG Decoded Metar

in
Report Time2018-12-10 10:50:00
UTC Time2018-12-10 11:27:56
Flight Rules vfr VFR
WindVRB at 02 kt
Visibility9999 m
Phenomena:N/A
Clouds:Scattered 030 Hf
Broken 100 Hf
Expected CloudBase > 2,000 ft AGL from Temp-Dew spread
Ceiling10,000 ft
Temp18°C
Dew Point13°C (73% RH)
QNH1012 hPa
Raw Report
METAR LTFG 101050Z VRB02KT 9999 SCT030 BKN100 18/13 Q1012=

Extra information for LTFG:More info

Social comments